Time;durP1;ratioP1;P1;durP2;ratioP2;P2;SDS_P1;SDS_P2;PMS_P1;PMS_P2;Temp;Humidity;BMP_temperature;BMP_pressure;BME280_temperature;BME280_humidity;BME280_pressure;Samples;Min_cycle;Max_cycle;Signal;HPM_P1;HPM_P2
2023/10/23 00:00:59;;;;;;;80.10;20.42;;;8.90;99.90;;;;;;5049853;28;20059;-82
2023/10/23 00:03:25;;;;;;;38.65;17.35;;;8.90;99.90;;;;;;5052474;28;20083;-82
2023/10/23 00:05:50;;;;;;;57.60;14.27;;;8.80;99.90;;;;;;5044135;28;20078;-76
2023/10/23 00:08:16;;;;;;;42.15;16.35;;;8.80;99.90;;;;;;5051966;28;20021;-76
2023/10/23 00:10:44;;;;;;;91.00;21.42;;;8.80;99.90;;;;;;5051154;28;20421;-76
2023/10/23 00:13:11;;;;;;;47.63;14.90;;;8.70;99.90;;;;;;5050451;28;20017;-81
2023/10/23 00:15:36;;;;;;;83.07;18.52;;;8.70;99.90;;;;;;5053673;28;20033;-81
2023/10/23 00:18:02;;;;;;;103.47;18.25;;;8.70;99.90;;;;;;5066776;28;20079;-81
2023/10/23 00:20:28;;;;;;;60.85;15.93;;;8.60;99.90;;;;;;5051193;28;20029;-81
2023/10/23 00:22:54;;;;;;;52.17;16.48;;;8.60;99.90;;;;;;5066411;28;20021;-82
2023/10/23 00:25:19;;;;;;;24.55;13.02;;;8.50;99.90;;;;;;5052506;28;20028;-82
2023/10/23 00:27:45;;;;;;;71.20;16.65;;;8.50;99.90;;;;;;5052531;28;20391;-81
2023/10/23 00:30:11;;;;;;;74.20;15.93;;;8.50;99.90;;;;;;5053257;28;20482;-81
2023/10/23 00:32:37;;;;;;;71.68;16.92;;;8.50;99.90;;;;;;5050618;28;20052;-81
2023/10/23 00:35:03;;;;;;;62.17;15.68;;;8.40;99.90;;;;;;5052656;28;20049;-81
2023/10/23 00:37:29;;;;;;;77.25;18.25;;;8.40;99.90;;;;;;5052109;28;20383;-81
2023/10/23 00:39:54;;;;;;;114.32;23.52;;;8.30;99.90;;;;;;5051974;28;20051;-81
2023/10/23 00:42:20;;;;;;;196.40;30.30;;;8.30;99.90;;;;;;5052266;28;20028;-82
2023/10/23 00:44:46;;;;;;;97.15;21.20;;;8.20;99.90;;;;;;5050703;28;20021;-81
2023/10/23 00:47:11;;;;;;;50.00;20.83;;;8.30;99.90;;;;;;5049779;28;20097;-81
2023/10/23 00:49:37;;;;;;;70.63;19.25;;;8.30;99.90;;;;;;5051678;28;20068;-81
2023/10/23 00:52:04;;;;;;;76.68;20.38;;;8.30;99.90;;;;;;5051610;28;20021;-76
2023/10/23 00:54:31;;;;;;;48.17;19.30;;;8.20;99.90;;;;;;5063826;28;20060;-82
2023/10/23 00:56:57;;;;;;;188.77;33.38;;;8.30;99.90;;;;;;5048274;28;20021;-81
2023/10/23 00:59:23;;;;;;;78.05;22.88;;;8.20;99.90;;;;;;5049847;28;20021;-82
2023/10/23 01:01:48;;;;;;;101.53;24.25;;;8.20;99.90;;;;;;5050365;28;20403;-81
2023/10/23 01:04:14;;;;;;;213.00;33.13;;;8.30;99.90;;;;;;5065854;28;20014;-82
2023/10/23 01:06:40;;;;;;;47.17;20.48;;;8.20;99.90;;;;;;5052797;28;20083;-82
2023/10/23 01:09:06;;;;;;;49.25;19.77;;;8.20;99.90;;;;;;5051159;28;20021;-82
2023/10/23 01:11:32;;;;;;;64.40;20.80;;;8.20;99.90;;;;;;5049793;28;20027;-75
2023/10/23 01:13:58;;;;;;;50.90;21.45;;;8.30;99.90;;;;;;5052230;28;20513;-75
2023/10/23 01:16:24;;;;;;;102.13;23.40;;;8.20;99.90;;;;;;5049519;28;20017;-75
2023/10/23 01:18:49;;;;;;;176.93;27.73;;;8.20;99.90;;;;;;5050330;28;20025;-75
2023/10/23 01:21:15;;;;;;;130.68;24.48;;;8.20;99.90;;;;;;5048695;28;20074;-75
2023/10/23 01:23:43;;;;;;;134.82;25.75;;;8.10;99.90;;;;;;5047767;28;20116;-75
2023/10/23 01:26:08;;;;;;;85.32;20.65;;;8.10;99.90;;;;;;5050177;28;20112;-75
2023/10/23 01:28:34;;;;;;;109.95;21.05;;;8.10;99.90;;;;;;5052071;28;20104;-75
2023/10/23 01:31:00;;;;;;;82.38;21.98;;;8.10;99.90;;;;;;5066506;28;20491;-75
2023/10/23 01:33:25;;;;;;;34.60;17.88;;;8.10;99.90;;;;;;5049225;28;20052;-75
2023/10/23 01:35:51;;;;;;;66.07;21.08;;;8.10;99.90;;;;;;5050019;28;20048;-75
2023/10/23 01:38:18;;;;;;;140.57;27.35;;;8.10;99.90;;;;;;5050778;28;20063;-75
2023/10/23 01:40:43;;;;;;;94.03;21.77;;;8.10;99.90;;;;;;5050393;28;20021;-75
2023/10/23 01:43:09;;;;;;;87.65;22.38;;;8.10;99.90;;;;;;5048835;28;20021;-75
2023/10/23 01:45:35;;;;;;;123.00;25.13;;;8.00;99.90;;;;;;5050399;28;20021;-81
2023/10/23 01:48:00;;;;;;;94.68;22.42;;;8.00;99.90;;;;;;5050883;28;20511;-81
2023/10/23 01:50:26;;;;;;;76.63;17.83;;;8.00;99.90;;;;;;5049195;28;20123;-81
2023/10/23 01:52:51;;;;;;;73.68;21.02;;;8.00;99.90;;;;;;5048353;28;20029;-81
2023/10/23 01:55:17;;;;;;;130.45;25.30;;;8.00;99.90;;;;;;5049336;28;20094;-81
2023/10/23 01:57:43;;;;;;;146.63;26.63;;;8.00;99.90;;;;;;5050177;28;20025;-81
2023/10/23 02:00:10;;;;;;;153.68;26.42;;;7.90;99.90;;;;;;5049491;28;20025;-81
2023/10/23 02:02:36;;;;;;;79.00;20.75;;;7.90;99.90;;;;;;5049705;28;20100;-81
2023/10/23 02:05:03;;;;;;;137.68;26.52;;;7.90;99.90;;;;;;5048781;28;20486;-81
2023/10/23 02:07:29;;;;;;;67.30;20.77;;;7.80;99.90;;;;;;5049133;28;20100;-81
2023/10/23 02:09:58;;;;;;;63.05;20.42;;;7.90;99.90;;;;;;5048619;28;20163;-76
2023/10/23 02:12:24;;;;;;;56.00;20.23;;;7.90;99.90;;;;;;5047857;28;20029;-75
2023/10/23 02:14:52;;;;;;;100.72;22.60;;;7.90;99.90;;;;;;5049154;28;20066;-75
2023/10/23 02:17:18;;;;;;;47.10;17.80;;;7.90;99.90;;;;;;5048532;28;20051;-75
2023/10/23 02:19:44;;;;;;;56.45;19.17;;;7.80;99.90;;;;;;5048861;28;20070;-75
2023/10/23 02:22:10;;;;;;;68.22;19.83;;;7.80;99.90;;;;;;5044004;28;20014;-75
2023/10/23 02:24:36;;;;;;;60.47;18.73;;;7.80;99.90;;;;;;5050503;28;20463;-76
2023/10/23 02:27:02;;;;;;;37.17;18.52;;;7.90;99.90;;;;;;5062619;28;20025;-81
2023/10/23 02:29:28;;;;;;;57.17;20.67;;;7.80;99.90;;;;;;5049837;28;20075;-81
2023/10/23 02:31:54;;;;;;;79.25;21.40;;;7.80;99.90;;;;;;5049676;28;20482;-81
2023/10/23 02:34:20;;;;;;;56.20;21.90;;;7.80;99.90;;;;;;5050298;28;20017;-81
2023/10/23 02:36:46;;;;;;;48.45;20.27;;;7.80;99.90;;;;;;5050302;28;20466;-81
2023/10/23 02:39:12;;;;;;;72.20;22.15;;;7.80;99.90;;;;;;5046799;28;20372;-82
2023/10/23 02:41:38;;;;;;;48.08;19.90;;;7.80;99.90;;;;;;5048838;28;20024;-76
2023/10/23 02:44:05;;;;;;;50.20;19.17;;;7.90;99.90;;;;;;5047116;28;20426;-76
2023/10/23 02:46:34;;;;;;;41.75;19.38;;;7.80;99.90;;;;;;5049009;28;20024;-76
2023/10/23 02:49:00;;;;;;;129.95;26.33;;;7.80;99.90;;;;;;5051399;28;20502;-75
2023/10/23 02:51:26;;;;;;;95.00;22.02;;;7.80;99.90;;;;;;5048718;28;20017;-76
2023/10/23 02:53:51;;;;;;;130.05;27.98;;;7.70;99.90;;;;;;5050278;28;20138;-81
2023/10/23 02:56:17;;;;;;;100.93;24.10;;;7.60;99.90;;;;;;5050461;28;20017;-81
2023/10/23 02:58:43;;;;;;;88.38;23.92;;;7.60;99.90;;;;;;5066125;28;20075;-81
2023/10/23 03:01:20;;;;;;;82.63;22.55;;;7.60;99.90;;;;;;5045969;28;20522;-81
2023/10/23 03:03:49;;;;;;;28.55;17.13;;;7.50;99.90;;;;;;5049377;28;20017;-84
2023/10/23 03:06:15;;;;;;;55.60;18.80;;;7.50;99.90;;;;;;5051874;28;20120;-81
2023/10/23 03:08:41;;;;;;;56.13;20.02;;;7.40;99.90;;;;;;5054356;28;20107;-83
2023/10/23 03:11:07;;;;;;;56.72;21.33;;;7.40;99.90;;;;;;5068153;28;20027;-81
2023/10/23 03:13:33;;;;;;;79.60;21.90;;;7.40;99.90;;;;;;5051496;28;20470;-80
2023/10/23 03:15:59;;;;;;;70.50;22.67;;;7.40;99.90;;;;;;5053099;28;20112;-81
2023/10/23 03:18:25;;;;;;;42.08;18.33;;;7.30;99.90;;;;;;5051700;28;20043;-80
2023/10/23 03:20:51;;;;;;;55.53;19.05;;;7.30;99.90;;;;;;5050284;28;20447;-81
2023/10/23 03:23:17;;;;;;;138.50;24.65;;;7.20;99.90;;;;;;5054026;28;20025;-82
2023/10/23 03:25:43;;;;;;;82.18;21.38;;;7.20;99.90;;;;;;5054566;28;20017;-82
2023/10/23 03:28:09;;;;;;;60.00;18.48;;;7.20;99.90;;;;;;5053124;28;20544;-82
2023/10/23 03:30:35;;;;;;;40.25;17.23;;;7.20;99.90;;;;;;5052058;28;20116;-83
2023/10/23 03:33:00;;;;;;;72.57;21.85;;;7.20;99.90;;;;;;5052621;28;20029;-83
2023/10/23 03:35:26;;;;;;;64.10;19.40;;;7.20;99.90;;;;;;5052406;28;20052;-83
2023/10/23 03:37:52;;;;;;;73.45;19.27;;;7.20;99.90;;;;;;5052992;28;20024;-83
2023/10/23 03:40:18;;;;;;;58.53;17.63;;;7.10;99.90;;;;;;5052880;28;20741;-81
2023/10/23 03:42:44;;;;;;;65.97;20.02;;;7.10;99.90;;;;;;5052254;28;20131;-81
2023/10/23 03:45:10;;;;;;;39.88;17.98;;;7.10;99.90;;;;;;5053600;28;20404;-81
2023/10/23 03:47:35;;;;;;;50.35;17.35;;;7.10;99.90;;;;;;5053271;28;20063;-81
2023/10/23 03:50:01;;;;;;;39.67;16.95;;;7.10;99.90;;;;;;5052139;28;20044;-81
2023/10/23 03:52:27;;;;;;;30.52;16.40;;;7.10;99.90;;;;;;5050791;28;20021;-81
2023/10/23 03:54:52;;;;;;;26.13;14.75;;;7.00;99.90;;;;;;5051720;28;20052;-81
2023/10/23 03:57:18;;;;;;;46.85;16.10;;;7.00;99.90;;;;;;5052420;28;20096;-81
2023/10/23 03:59:44;;;;;;;28.25;14.32;;;7.00;99.90;;;;;;5068536;28;20021;-76
2023/10/23 04:02:09;;;;;;;23.67;13.73;;;6.90;99.90;;;;;;5050052;28;20025;-76
2023/10/23 04:04:35;;;;;;;24.35;14.43;;;7.00;99.90;;;;;;5052664;28;20463;-76
2023/10/23 04:07:01;;;;;;;25.20;14.55;;;6.90;99.90;;;;;;5048943;28;20017;-76
2023/10/23 04:09:30;;;;;;;34.75;15.60;;;6.90;99.90;;;;;;5048671;28;20380;-76
2023/10/23 04:11:56;;;;;;;26.77;13.73;;;6.80;99.90;;;;;;5052276;28;20032;-76
2023/10/23 04:14:22;;;;;;;30.02;15.48;;;6.80;99.90;;;;;;5049844;28;20029;-81
2023/10/23 04:16:48;;;;;;;31.85;16.33;;;6.80;99.90;;;;;;5051040;28;20179;-81
2023/10/23 04:19:13;;;;;;;28.88;15.82;;;6.80;99.90;;;;;;5052738;28;20025;-81
2023/10/23 04:21:39;;;;;;;32.13;15.52;;;6.70;99.90;;;;;;5067617;28;20028;-82
2023/10/23 04:24:06;;;;;;;28.55;14.65;;;6.70;99.90;;;;;;5052595;28;20061;-76
2023/10/23 04:26:32;;;;;;;27.17;16.08;;;6.70;99.90;;;;;;5051539;28;20388;-76
2023/10/23 04:28:58;;;;;;;24.42;15.27;;;6.70;99.90;;;;;;5052165;28;20033;-77
2023/10/23 04:31:23;;;;;;;28.27;15.05;;;6.70;99.90;;;;;;5050774;28;20037;-76
2023/10/23 04:33:49;;;;;;;26.17;14.88;;;6.70;99.90;;;;;;5051975;28;20025;-76
2023/10/23 04:36:14;;;;;;;27.17;14.68;;;6.70;99.90;;;;;;5052015;28;20056;-81
2023/10/23 04:38:40;;;;;;;29.55;14.95;;;6.60;99.90;;;;;;5052308;28;20030;-81
2023/10/23 04:41:06;;;;;;;25.85;15.23;;;6.60;99.90;;;;;;5052082;28;20067;-82
2023/10/23 04:43:33;;;;;;;26.63;15.07;;;6.60;99.90;;;;;;5052118;28;20021;-82
2023/10/23 04:45:59;;;;;;;24.02;14.15;;;6.50;99.90;;;;;;5049484;28;20691;-76
2023/10/23 04:48:24;;;;;;;25.70;14.65;;;6.50;99.90;;;;;;5048902;28;20228;-76
2023/10/23 04:50:50;;;;;;;30.00;16.52;;;6.50;99.90;;;;;;5050398;28;20028;-77
2023/10/23 04:53:16;;;;;;;29.60;15.02;;;6.50;99.90;;;;;;5049379;28;20021;-76
2023/10/23 04:55:42;;;;;;;28.77;15.13;;;6.50;99.90;;;;;;5052216;28;20021;-76
2023/10/23 04:58:08;;;;;;;31.67;15.75;;;6.50;99.90;;;;;;5052142;28;20033;-76
2023/10/23 05:00:35;;;;;;;39.67;17.77;;;6.50;99.90;;;;;;5065466;28;20132;-76
2023/10/23 05:03:03;;;;;;;44.72;22.02;;;6.50;99.90;;;;;;5045939;28;20083;-76
2023/10/23 05:05:32;;;;;;;76.20;36.63;;;6.50;99.90;;;;;;5050008;28;20056;-76
2023/10/23 05:07:58;;;;;;;157.55;74.70;;;6.40;99.90;;;;;;5060712;28;20013;-76
2023/10/23 05:10:24;;;;;;;156.82;76.88;;;6.40;99.90;;;;;;5049265;28;20026;-77
2023/10/23 05:12:50;;;;;;;128.48;63.60;;;6.40;99.90;;;;;;5049960;28;20024;-76
2023/10/23 05:15:17;;;;;;;102.55;52.50;;;6.40;99.90;;;;;;5049872;28;20021;-76
2023/10/23 05:17:43;;;;;;;82.82;38.47;;;6.40;99.90;;;;;;5050233;28;20059;-76
2023/10/23 05:20:09;;;;;;;55.22;26.48;;;6.40;99.90;;;;;;5063357;28;20028;-76
2023/10/23 05:22:35;;;;;;;46.45;23.70;;;6.40;99.90;;;;;;5048272;28;20088;-77
2023/10/23 05:25:00;;;;;;;50.33;21.25;;;6.30;99.90;;;;;;5045484;28;20474;-77
2023/10/23 05:27:26;;;;;;;62.25;24.65;;;6.30;99.90;;;;;;5043367;28;20087;-77
2023/10/23 05:29:52;;;;;;;58.85;22.75;;;6.30;99.90;;;;;;5045702;28;20044;-77
2023/10/23 05:32:18;;;;;;;89.93;32.90;;;6.30;99.90;;;;;;5046219;28;20040;-77
2023/10/23 05:34:46;;;;;;;74.82;26.52;;;6.30;99.90;;;;;;5047994;28;20025;-77
2023/10/23 05:37:12;;;;;;;48.97;23.23;;;6.20;99.90;;;;;;5046879;28;20041;-77
2023/10/23 05:39:38;;;;;;;42.65;21.13;;;6.20;99.90;;;;;;5049841;28;20021;-77
2023/10/23 05:42:04;;;;;;;35.95;19.40;;;6.30;99.90;;;;;;5049108;28;20094;-77
2023/10/23 05:44:30;;;;;;;35.05;18.70;;;6.20;99.90;;;;;;5050084;28;20071;-81
2023/10/23 05:46:56;;;;;;;32.65;16.95;;;6.30;99.90;;;;;;5047254;28;20013;-81
2023/10/23 05:49:22;;;;;;;31.25;17.00;;;6.30;99.90;;;;;;5049249;28;20041;-77
2023/10/23 05:51:47;;;;;;;30.48;17.20;;;6.30;99.90;;;;;;5049345;28;20021;-77
2023/10/23 05:54:14;;;;;;;27.83;17.52;;;6.40;99.90;;;;;;5050469;28;20478;-81
2023/10/23 05:56:40;;;;;;;38.13;20.17;;;6.40;99.90;;;;;;5048261;28;20096;-81
2023/10/23 05:59:06;;;;;;;41.08;22.80;;;6.40;99.90;;;;;;5050577;28;20064;-81
2023/10/23 06:01:32;;;;;;;47.70;22.83;;;6.40;99.90;;;;;;5050366;28;20108;-81
2023/10/23 06:03:57;;;;;;;48.88;25.80;;;6.50;99.90;;;;;;5051861;28;20013;-81
2023/10/23 06:06:23;;;;;;;46.22;22.73;;;6.50;99.90;;;;;;5067393;28;20044;-81
2023/10/23 06:08:49;;;;;;;42.25;23.17;;;6.60;99.90;;;;;;5051534;28;20021;-77
2023/10/23 06:11:14;;;;;;;47.60;24.20;;;6.60;99.90;;;;;;5050173;28;20020;-77
2023/10/23 06:13:40;;;;;;;79.03;34.75;;;6.70;99.90;;;;;;5049439;28;20115;-77
2023/10/23 06:16:07;;;;;;;56.83;27.58;;;6.70;99.90;;;;;;5045542;28;20021;-82
2023/10/23 06:18:37;;;;;;;41.08;22.25;;;6.70;99.90;;;;;;5049186;28;20017;-77
2023/10/23 06:21:05;;;;;;;50.13;25.35;;;6.80;99.90;;;;;;5048590;28;20482;-77
2023/10/23 06:23:40;;;;;;;61.45;27.98;;;6.80;99.90;;;;;;5048824;28;20107;-77
2023/10/23 06:26:09;;;;;;;56.63;28.52;;;6.90;99.90;;;;;;5051172;28;20029;-78
2023/10/23 06:28:35;;;;;;;64.75;30.63;;;6.90;99.90;;;;;;5049289;28;20025;-77
2023/10/23 06:31:05;;;;;;;76.55;32.88;;;6.90;99.90;;;;;;5066669;28;20100;-82
2023/10/23 06:33:31;;;;;;;62.17;29.30;;;7.00;99.90;;;;;;5052202;28;20128;-81
2023/10/23 06:35:59;;;;;;;70.03;31.83;;;7.00;99.90;;;;;;5051427;28;20092;-81
2023/10/23 06:38:25;;;;;;;65.93;29.58;;;7.00;99.90;;;;;;5047464;28;20021;-82
2023/10/23 06:40:51;;;;;;;70.97;31.65;;;7.10;99.90;;;;;;5052252;28;20019;-81
2023/10/23 06:43:17;;;;;;;72.65;29.80;;;7.10;99.90;;;;;;5070881;28;20386;-82
2023/10/23 06:45:43;;;;;;;61.15;29.40;;;7.20;99.90;;;;;;5054454;28;20092;-77
2023/10/23 06:48:09;;;;;;;60.28;28.52;;;7.20;99.90;;;;;;5050589;28;20128;-81
2023/10/23 06:50:35;;;;;;;48.28;24.58;;;7.20;99.90;;;;;;5069049;28;20116;-81
2023/10/23 06:53:01;;;;;;;49.40;23.27;;;7.30;99.90;;;;;;5051326;28;20048;-82
2023/10/23 06:55:29;;;;;;;42.20;21.60;;;7.30;99.90;;;;;;5051575;28;20022;-77
2023/10/23 06:57:55;;;;;;;35.40;20.40;;;7.30;99.90;;;;;;5053733;28;20070;-77
2023/10/23 07:00:21;;;;;;;37.50;21.20;;;7.40;99.90;;;;;;5048265;28;20021;-77
2023/10/23 07:02:50;;;;;;;39.28;21.27;;;7.50;99.90;;;;;;5051044;28;20020;-77
2023/10/23 07:05:16;;;;;;;38.47;22.30;;;7.50;99.90;;;;;;5052372;28;20542;-77
2023/10/23 07:07:42;;;;;;;29.67;19.35;;;7.60;99.90;;;;;;5053479;28;20017;-77
2023/10/23 07:10:08;;;;;;;33.17;18.88;;;7.60;99.90;;;;;;5051809;28;20044;-77
2023/10/23 07:12:34;;;;;;;34.70;19.27;;;7.60;99.90;;;;;;5053441;28;20017;-77
2023/10/23 07:15:01;;;;;;;30.33;17.98;;;7.70;99.90;;;;;;5052651;28;20390;-77
2023/10/23 07:17:27;;;;;;;32.70;19.38;;;7.70;99.90;;;;;;5066253;28;20024;-77
2023/10/23 07:19:53;;;;;;;24.63;15.57;;;7.80;99.90;;;;;;5052392;28;20382;-77
2023/10/23 07:22:20;;;;;;;29.75;17.60;;;7.90;99.90;;;;;;5052393;28;20017;-77
2023/10/23 07:24:45;;;;;;;36.25;17.77;;;7.90;99.90;;;;;;5054604;28;20021;-77
2023/10/23 07:27:14;;;;;;;32.67;17.20;;;8.00;99.90;;;;;;5049432;28;20040;-77
2023/10/23 07:29:40;;;;;;;25.30;15.38;;;8.10;99.90;;;;;;5051427;28;20067;-77
2023/10/23 07:32:06;;;;;;;27.65;15.48;;;8.20;99.90;;;;;;5070060;28;20043;-77
2023/10/23 07:34:32;;;;;;;26.05;15.45;;;8.30;99.90;;;;;;5051974;28;20479;-78
2023/10/23 07:36:57;;;;;;;28.75;15.27;;;8.40;99.90;;;;;;5052500;28;20518;-77
2023/10/23 07:39:23;;;;;;;26.48;14.85;;;8.50;99.90;;;;;;5053134;28;20021;-77
2023/10/23 07:41:49;;;;;;;27.05;15.70;;;8.60;99.90;;;;;;5049272;28;20032;-77
2023/10/23 07:44:15;;;;;;;29.20;15.40;;;8.60;99.90;;;;;;5051019;28;20048;-77
2023/10/23 07:46:43;;;;;;;29.23;16.13;;;8.70;99.90;;;;;;5052622;28;20083;-77
2023/10/23 07:49:08;;;;;;;23.92;13.55;;;8.80;99.90;;;;;;5049324;28;20047;-77
2023/10/23 07:51:35;;;;;;;24.45;15.02;;;8.90;99.90;;;;;;5035661;28;20049;-77
2023/10/23 07:54:01;;;;;;;23.77;14.48;;;8.90;99.90;;;;;;5052461;28;20086;-77
2023/10/23 07:56:26;;;;;;;25.88;16.15;;;9.00;99.90;;;;;;5054166;28;20021;-77
2023/10/23 07:58:55;;;;;;;28.20;15.60;;;9.00;99.90;;;;;;5053904;28;20635;-77
2023/10/23 08:01:21;;;;;;;29.13;17.42;;;9.10;99.90;;;;;;5053919;28;20534;-77
2023/10/23 08:03:47;;;;;;;24.38;15.07;;;9.20;99.90;;;;;;5051935;28;20104;-83
2023/10/23 08:06:12;;;;;;;23.95;15.20;;;9.20;99.90;;;;;;5047695;28;20112;-77
2023/10/23 08:08:39;;;;;;;28.38;16.73;;;9.20;99.90;;;;;;5052300;28;20154;-77
2023/10/23 08:11:08;;;;;;;23.95;15.75;;;9.30;99.90;;;;;;5051307;28;20040;-78
2023/10/23 08:13:33;;;;;;;24.85;15.32;;;9.40;99.90;;;;;;5050372;28;20021;-83
2023/10/23 08:15:59;;;;;;;24.20;15.55;;;9.50;99.90;;;;;;5052486;28;20021;-82
2023/10/23 08:18:25;;;;;;;25.45;14.88;;;9.60;99.90;;;;;;5048054;28;20051;-82
2023/10/23 08:20:51;;;;;;;22.45;14.40;;;9.60;99.90;;;;;;5052659;28;20025;-77
2023/10/23 08:23:17;;;;;;;22.45;14.02;;;9.60;99.90;;;;;;5040224;28;20028;-77
2023/10/23 08:25:44;;;;;;;24.02;13.45;;;9.60;99.90;;;;;;5056105;28;20025;-77
2023/10/23 08:28:10;;;;;;;23.55;15.15;;;9.60;99.90;;;;;;5050838;28;20025;-77
2023/10/23 08:30:36;;;;;;;22.33;13.70;;;9.70;99.90;;;;;;5050805;28;20044;-77
2023/10/23 08:33:03;;;;;;;24.58;13.90;;;9.80;99.90;;;;;;5051098;28;20021;-82
2023/10/23 08:35:29;;;;;;;21.77;13.48;;;9.80;99.90;;;;;;5052084;28;20054;-82
2023/10/23 08:37:55;;;;;;;19.98;13.75;;;9.80;99.90;;;;;;5052442;28;20013;-77
2023/10/23 08:40:21;;;;;;;26.95;12.85;;;9.90;99.90;;;;;;5052403;28;20021;-77
2023/10/23 08:42:48;;;;;;;18.27;12.30;;;9.90;99.90;;;;;;5052770;28;20048;-77
2023/10/23 08:45:15;;;;;;;19.48;12.57;;;10.00;99.90;;;;;;5053734;28;20024;-82
2023/10/23 08:47:41;;;;;;;15.93;10.60;;;10.00;99.90;;;;;;5057748;28;20045;-79
2023/10/23 08:50:07;;;;;;;20.95;11.88;;;10.10;99.90;;;;;;5048727;28;20063;-83
2023/10/23 08:52:46;;;;;;;18.92;11.52;;;10.10;99.90;;;;;;5053791;28;20386;-78
2023/10/23 08:55:13;;;;;;;20.73;11.48;;;10.10;99.90;;;;;;5052213;28;20360;-82
2023/10/23 08:57:53;;;;;;;18.75;11.20;;;10.10;99.90;;;;;;5057683;28;20032;-78
2023/10/23 09:00:23;;;;;;;15.73;10.95;;;10.20;99.90;;;;;;5051987;28;20048;-83
2023/10/23 09:02:52;;;;;;;19.63;11.55;;;10.20;99.90;;;;;;5050273;28;20113;-77
2023/10/23 09:05:19;;;;;;;17.20;11.57;;;10.30;99.90;;;;;;5054772;28;20493;-83
2023/10/23 09:07:45;;;;;;;17.88;10.32;;;10.30;99.90;;;;;;5052212;28;20021;-83
2023/10/23 09:10:11;;;;;;;14.93;9.75;;;10.30;99.90;;;;;;5049345;28;20063;-83
2023/10/23 09:12:39;;;;;;;15.77;10.45;;;10.30;99.90;;;;;;5053345;28;20443;-83
2023/10/23 09:15:16;;;;;;;20.92;11.07;;;10.40;99.90;;;;;;5052094;28;20108;-78
2023/10/23 09:17:43;;;;;;;11.98;10.15;;;10.40;99.90;;;;;;5051972;28;20025;-78
2023/10/23 09:20:23;;;;;;;19.73;11.05;;;10.50;99.90;;;;;;5053120;28;20052;-83
2023/10/23 09:22:51;;;;;;;16.15;9.80;;;10.50;99.90;;;;;;5051982;28;20033;-83
2023/10/23 09:25:24;;;;;;;18.88;11.75;;;10.60;99.90;;;;;;5051559;28;20043;-78
2023/10/23 09:27:51;;;;;;;18.40;10.95;;;10.70;99.90;;;;;;5050911;28;20025;-78
2023/10/23 09:30:21;;;;;;;20.77;10.02;;;10.70;99.90;;;;;;5051873;28;20036;-78
2023/10/23 09:32:55;;;;;;;14.55;10.48;;;10.70;99.90;;;;;;5054053;28;20024;-83
2023/10/23 09:35:24;;;;;;;16.67;9.40;;;10.70;99.90;;;;;;5045692;28;20083;-78
2023/10/23 09:37:50;;;;;;;16.00;9.60;;;10.70;99.90;;;;;;5051553;28;20028;-78
2023/10/23 09:40:19;;;;;;;25.17;10.23;;;10.80;99.90;;;;;;5051651;28;20107;-78
2023/10/23 09:42:45;;;;;;;18.55;10.38;;;10.80;99.90;;;;;;5053096;28;20024;-78
2023/10/23 09:45:11;;;;;;;17.42;9.68;;;10.90;99.90;;;;;;5051473;28;20021;-78
2023/10/23 09:47:39;;;;;;;17.90;9.23;;;10.90;99.90;;;;;;5048155;28;20094;-78
2023/10/23 09:50:05;;;;;;;15.35;9.40;;;10.90;99.90;;;;;;5047085;28;20079;-83
2023/10/23 09:52:35;;;;;;;13.90;10.07;;;11.00;99.90;;;;;;5052670;28;20386;-78
2023/10/23 09:55:09;;;;;;;16.98;8.68;;;11.10;99.90;;;;;;5057298;28;20029;-83
2023/10/23 09:57:35;;;;;;;13.50;8.70;;;11.10;99.90;;;;;;5052600;28;20029;-83
2023/10/23 10:00:16;;;;;;;15.77;8.55;;;11.30;99.90;;;;;;5053085;28;20033;-83
2023/10/23 10:03:05;;;;;;;14.30;8.00;;;11.30;99.90;;;;;;5051354;28;20020;-78
2023/10/23 10:05:49;;;;;;;15.00;7.65;;;11.50;99.90;;;;;;5047298;28;20013;-82
2023/10/23 10:08:17;;;;;;;12.15;7.35;;;11.50;99.90;;;;;;5052549;28;20511;-83
2023/10/23 10:10:43;;;;;;;12.57;7.03;;;11.50;99.90;;;;;;5052584;28;20033;-83
2023/10/23 10:13:13;;;;;;;11.95;7.47;;;11.60;99.90;;;;;;5054629;28;20025;-78
2023/10/23 10:15:39;;;;;;;10.60;7.15;;;11.70;99.90;;;;;;5050497;28;20514;-78
2023/10/23 10:18:05;;;;;;;10.60;7.05;;;11.80;99.90;;;;;;5051007;28;20390;-83
2023/10/23 10:20:31;;;;;;;16.40;7.00;;;11.90;99.90;;;;;;5049230;28;20437;-78
2023/10/23 10:23:16;;;;;;;14.50;7.28;;;12.00;99.90;;;;;;5045652;28;20116;-78
2023/10/23 10:25:46;;;;;;;11.13;6.57;;;12.10;99.90;;;;;;5043620;28;20440;-77
2023/10/23 10:28:13;;;;;;;12.48;6.80;;;12.20;99.90;;;;;;5049556;28;20580;-78
2023/10/23 10:30:51;;;;;;;10.50;6.28;;;12.30;99.90;;;;;;5047991;28;20059;-78
2023/10/23 10:33:29;;;;;;;10.73;5.82;;;12.40;99.90;;;;;;5043270;28;20029;-79
2023/10/23 10:36:04;;;;;;;12.57;5.68;;;12.60;99.90;;;;;;5049960;28;20025;-78
2023/10/23 10:38:33;;;;;;;15.13;5.72;;;12.70;99.90;;;;;;5051018;28;20114;-78
2023/10/23 10:41:17;;;;;;;13.00;5.95;;;12.80;99.90;;;;;;5049551;28;20173;-78
2023/10/23 10:43:53;;;;;;;7.57;4.88;;;12.90;99.90;;;;;;5038317;28;20040;-77
2023/10/23 10:46:26;;;;;;;11.65;6.18;;;13.00;99.90;;;;;;5049034;28;20025;-78
2023/10/23 10:48:53;;;;;;;8.32;4.82;;;13.10;99.90;;;;;;5044070;28;20049;-77
2023/10/23 10:51:25;;;;;;;6.20;4.95;;;13.20;99.90;;;;;;5065656;28;20530;-77
2023/10/23 10:54:00;;;;;;;;;;;13.40;99.90;;;;;;5048414;28;20437;-77
2023/10/23 10:56:26;;;;;;;6.60;4.18;;;13.50;99.90;;;;;;5042295;28;19913;-77
2023/10/23 10:58:52;;;;;;;6.40;4.55;;;13.60;99.90;;;;;;5040692;28;20037;-77
2023/10/23 11:01:21;;;;;;;8.60;4.72;;;13.60;99.90;;;;;;5048067;28;20493;-78
2023/10/23 11:03:47;;;;;;;8.27;4.53;;;13.70;99.90;;;;;;5047151;28;20034;-77
2023/10/23 11:06:13;;;;;;;12.45;4.88;;;13.80;99.90;;;;;;5047970;28;20025;-77
2023/10/23 11:08:40;;;;;;;10.20;4.78;;;13.90;99.90;;;;;;5050007;28;20171;-78
2023/10/23 11:11:06;;;;;;;11.27;4.45;;;13.90;99.90;;;;;;5045171;28;20025;-78
2023/10/23 11:13:34;;;;;;;10.18;4.07;;;14.00;99.90;;;;;;5044457;28;20040;-77
2023/10/23 11:16:01;;;;;;;7.78;4.57;;;14.00;99.90;;;;;;5054245;28;20043;-78
2023/10/23 11:18:29;;;;;;;9.98;4.18;;;14.00;99.90;;;;;;5050589;28;20033;-78
2023/10/23 11:21:00;;;;;;;9.38;3.95;;;14.10;99.90;;;;;;5049182;28;20474;-78
2023/10/23 11:23:28;;;;;;;7.47;3.95;;;14.10;99.90;;;;;;5048994;28;20120;-78
2023/10/23 11:25:54;;;;;;;10.52;4.05;;;14.20;99.90;;;;;;5045926;28;20018;-78
2023/10/23 11:28:23;;;;;;;7.50;3.92;;;14.20;99.90;;;;;;5046298;28;20044;-78
2023/10/23 11:30:55;;;;;;;8.88;4.05;;;14.20;99.90;;;;;;5052315;28;20440;-79
2023/10/23 11:33:20;;;;;;;8.63;3.92;;;14.30;99.90;;;;;;5052319;28;20067;-78
2023/10/23 11:35:46;;;;;;;6.20;3.65;;;14.40;99.90;;;;;;5046316;28;20586;-78
2023/10/23 11:38:17;;;;;;;7.38;3.75;;;14.40;99.90;;;;;;5055672;28;20524;-79
2023/10/23 11:40:43;;;;;;;7.88;3.88;;;14.50;99.90;;;;;;5052208;28;20025;-79
2023/10/23 11:43:10;;;;;;;6.18;3.20;;;14.60;99.90;;;;;;5048939;28;20426;-79
2023/10/23 11:45:37;;;;;;;8.27;3.70;;;14.60;96.90;;;;;;5051982;28;20033;-78
2023/10/23 11:48:04;;;;;;;8.55;3.30;;;14.70;97.90;;;;;;5051534;28;20116;-78
2023/10/23 11:50:31;;;;;;;10.20;2.80;;;14.80;95.00;;;;;;5053905;28;20379;-78
2023/10/23 11:52:57;;;;;;;6.38;3.45;;;14.80;96.40;;;;;;5051810;28;20060;-78
2023/10/23 11:55:25;;;;;;;7.68;2.70;;;14.90;97.90;;;;;;5054383;28;20419;-78
2023/10/23 11:57:50;;;;;;;6.07;2.70;;;14.90;89.10;;;;;;5052233;28;20430;-80
2023/10/23 12:00:18;;;;;;;6.22;2.55;;;14.90;90.20;;;;;;5057389;28;20032;-79
2023/10/23 12:02:45;;;;;;;7.18;2.67;;;15.00;87.10;;;;;;5052942;28;20112;-79
2023/10/23 12:05:13;;;;;;;4.25;3.08;;;15.00;90.00;;;;;;5051384;28;20025;-78
2023/10/23 12:07:40;;;;;;;6.97;2.83;;;15.00;90.90;;;;;;5053635;28;20368;-80
2023/10/23 12:10:08;;;;;;;4.78;2.55;;;15.20;89.70;;;;;;5049690;28;20125;-79
2023/10/23 12:12:34;;;;;;;5.88;2.40;;;15.20;87.90;;;;;;5052494;28;20029;-80
2023/10/23 12:14:59;;;;;;;5.72;2.75;;;15.20;87.60;;;;;;5053758;28;20108;-80
2023/10/23 12:17:25;;;;;;;5.60;1.95;;;15.30;86.30;;;;;;5055499;28;20117;-80
2023/10/23 12:31:18;;;;;;;5.43;2.13;;;15.10;82.00;;;;;;5034523;27;20398;-79
2023/10/23 12:33:44;;;;;;;6.88;2.50;;;15.40;81.90;;;;;;5037354;28;20562;-79
2023/10/23 12:36:10;;;;;;;7.70;3.15;;;15.40;81.30;;;;;;5009476;28;20482;-84
2023/10/23 12:38:35;;;;;;;5.40;2.13;;;15.50;83.10;;;;;;5005835;28;20374;-86
2023/10/23 12:41:01;;;;;;;10.13;3.38;;;15.50;82.50;;;;;;5012096;28;20049;-79
2023/10/23 12:43:27;;;;;;;5.68;2.20;;;15.50;78.40;;;;;;4996328;28;20033;-84
2023/10/23 12:45:52;;;;;;;4.28;2.03;;;15.50;79.50;;;;;;5005029;28;20096;-85